<?xml version="1.0" encoding="UTF-8" standalone="no" ?>
<gpx xmlns="http://www.topografix.com/GPX/1/1" xmlns:xsi="http://www.w3.org/2001/XMLSchema-instance" xsi:schemaLocation="http://www.topografix.com/GPX/1/1 http://www.topografix.com/GPX/1/1/gpx.xsd" version="1.1" creator="VisuGPX - https://www.visugpx.com">
  <metadata>
    <name>2018-02-03 Le Moucherotte</name>
    <desc><![CDATA[il y a un bout de route où j'ai oublié d'éteindre le GPS]]></desc>
  </metadata>
  <wpt lat="45.15986" lon="5.63651">
    <ele>1519.05</ele>
    <name><![CDATA[0000035]]></name>
    <type><![CDATA[Point de départ]]></type>
  </wpt>
  <wpt lat="45.17451" lon="5.64127">
    <ele>1055.76</ele>
    <name><![CDATA[0000036]]></name>
    <desc><![CDATA[<p><br /><h3>Nom: Segment: 1</h3><br />Heure de départ: 02/03/2018 10:27<br/>Heure d'arrivée: 02/03/2018 12:28<br/>Distance: 8,5km (02:00)<br/>Temps déplacement: 01:13<br/>Vitesse moyenne: 4,2 km/h<br/>Vitesse moyenne mouv.: 6,83 km/h<br/>Vitesse Max.: 59,97 km/h<br/>Altitude minimale: 1055 m<br/>Altitude maximale: 1905 m<br/>Vitesse de montée: 445,6 m/h<br/>Vitesse de descente: -763,4 m/h<br/>Gain d'altitude: 395 m<br/>Perte d'altitude: -857 m<br/>Temps de montée: 00:53<br/>Temps de descente: 01:07<br/></p>]]></desc>
    <type><![CDATA[Point d'arrivée]]></type>
  </wpt>
  <trk>
    <name><![CDATA[2018-02-03 10:27]]></name>
    <desc><![CDATA[<p>Heure de départ: 02/03/2018 10:27<br/>Heure d'arrivée: 02/03/2018 12:28<br/>Distance: 8,5 km (02:00)<br/>Temps déplacement: 01:13<br/>Vitesse moyenne: 4,2 km/h<br/>Vitesse moyenne mouv.: 6,87 km/h<br/>Vitesse Max.: 59,97 km/h<br/>Altitude minimale: 1055 m<br/>Altitude maximale: 1905 m<br/>Vitesse de montée: 419,5 m/h<br/>Vitesse de descente: -783,6 m/h<br/>Gain d'altitude: 388 m<br/>Perte d'altitude: -849 m<br/>Temps de montée: 00:55<br/>Temps de descente: 01:05<br/></p><hr align="center" width="480" style="height: 2px; width: 517px"/>]]></desc>
    <trkseg>
      <trkpt lat="45.15986" lon="5.63651">
        <ele>1519.05</ele>
        <time>2018-02-03T09:27:31Z</time>
      </trkpt>
      <trkpt lat="45.15986" lon="5.63677">
        <ele>1513.55</ele>
        <time>2018-02-03T09:29:21Z</time>
      </trkpt>
      <trkpt lat="45.15988" lon="5.63702">
        <ele>1513.14</ele>
        <time>2018-02-03T09:29:50Z</time>
      </trkpt>
      <trkpt lat="45.15978" lon="5.63723">
        <ele>1510.13</ele>
        <time>2018-02-03T09:30:14Z</time>
      </trkpt>
      <trkpt lat="45.1596" lon="5.63718">
        <ele>1512.14</ele>
        <time>2018-02-03T09:30:33Z</time>
      </trkpt>
      <trkpt lat="45.15942" lon="5.63713">
        <ele>1512.02</ele>
        <time>2018-02-03T09:30:50Z</time>
      </trkpt>
      <trkpt lat="45.15924" lon="5.63708">
        <ele>1512.26</ele>
        <time>2018-02-03T09:31:11Z</time>
      </trkpt>
      <trkpt lat="45.15906" lon="5.63705">
        <ele>1513.05</ele>
        <time>2018-02-03T09:31:34Z</time>
      </trkpt>
      <trkpt lat="45.15888" lon="5.63703">
        <ele>1519.04</ele>
        <time>2018-02-03T09:32:01Z</time>
      </trkpt>
      <trkpt lat="45.15872" lon="5.6369">
        <ele>1524.03</ele>
        <time>2018-02-03T09:32:36Z</time>
      </trkpt>
      <trkpt lat="45.15854" lon="5.63687">
        <ele>1527.74</ele>
        <time>2018-02-03T09:33:01Z</time>
      </trkpt>
      <trkpt lat="45.15836" lon="5.63696">
        <ele>1530.05</ele>
        <time>2018-02-03T09:35:08Z</time>
      </trkpt>
      <trkpt lat="45.15818" lon="5.63694">
        <ele>1536.01</ele>
        <time>2018-02-03T09:35:43Z</time>
      </trkpt>
      <trkpt lat="45.158" lon="5.63695">
        <ele>1537.13</ele>
        <time>2018-02-03T09:36:27Z</time>
      </trkpt>
      <trkpt lat="45.15782" lon="5.63691">
        <ele>1538.06</ele>
        <time>2018-02-03T09:36:54Z</time>
      </trkpt>
      <trkpt lat="45.15764" lon="5.63682">
        <ele>1540.24</ele>
        <time>2018-02-03T09:37:19Z</time>
      </trkpt>
      <trkpt lat="45.15746" lon="5.63684">
        <ele>1540.66</ele>
        <time>2018-02-03T09:37:48Z</time>
      </trkpt>
      <trkpt lat="45.15728" lon="5.63679">
        <ele>1553.46</ele>
        <time>2018-02-03T09:38:29Z</time>
      </trkpt>
      <trkpt lat="45.15711" lon="5.63672">
        <ele>1557.1</ele>
        <time>2018-02-03T09:39:00Z</time>
      </trkpt>
      <trkpt lat="45.15699" lon="5.63653">
        <ele>1556.02</ele>
        <time>2018-02-03T09:39:37Z</time>
      </trkpt>
      <trkpt lat="45.15683" lon="5.63642">
        <ele>1559.42</ele>
        <time>2018-02-03T09:40:09Z</time>
      </trkpt>
      <trkpt lat="45.15664" lon="5.6364">
        <ele>1565.05</ele>
        <time>2018-02-03T09:40:43Z</time>
      </trkpt>
      <trkpt lat="45.15646" lon="5.63648">
        <ele>1580.82</ele>
        <time>2018-02-03T09:41:45Z</time>
      </trkpt>
      <trkpt lat="45.15629" lon="5.6364">
        <ele>1593.34</ele>
        <time>2018-02-03T09:42:35Z</time>
      </trkpt>
      <trkpt lat="45.15613" lon="5.63627">
        <ele>1589.26</ele>
        <time>2018-02-03T09:43:26Z</time>
      </trkpt>
      <trkpt lat="45.15606" lon="5.63604">
        <ele>1591.1</ele>
        <time>2018-02-03T09:44:07Z</time>
      </trkpt>
      <trkpt lat="45.15603" lon="5.63578">
        <ele>1602.02</ele>
        <time>2018-02-03T09:44:39Z</time>
      </trkpt>
      <trkpt lat="45.15601" lon="5.63553">
        <ele>1600.96</ele>
        <time>2018-02-03T09:44:59Z</time>
      </trkpt>
      <trkpt lat="45.15584" lon="5.6354">
        <ele>1599.14</ele>
        <time>2018-02-03T09:45:40Z</time>
      </trkpt>
      <trkpt lat="45.1558" lon="5.63514">
        <ele>1605.24</ele>
        <time>2018-02-03T09:46:05Z</time>
      </trkpt>
      <trkpt lat="45.15584" lon="5.63488">
        <ele>1611.96</ele>
        <time>2018-02-03T09:46:45Z</time>
      </trkpt>
      <trkpt lat="45.15603" lon="5.6349">
        <ele>1621.71</ele>
        <time>2018-02-03T09:47:09Z</time>
      </trkpt>
      <trkpt lat="45.15619" lon="5.63502">
        <ele>1628.01</ele>
        <time>2018-02-03T09:47:37Z</time>
      </trkpt>
      <trkpt lat="45.15638" lon="5.63504">
        <ele>1626.95</ele>
        <time>2018-02-03T09:48:14Z</time>
      </trkpt>
      <trkpt lat="45.15634" lon="5.63478">
        <ele>1631.06</ele>
        <time>2018-02-03T09:48:50Z</time>
      </trkpt>
      <trkpt lat="45.15617" lon="5.63468">
        <ele>1633.43</ele>
        <time>2018-02-03T09:49:21Z</time>
      </trkpt>
      <trkpt lat="45.15599" lon="5.63458">
        <ele>1634.92</ele>
        <time>2018-02-03T09:49:45Z</time>
      </trkpt>
      <trkpt lat="45.15581" lon="5.63457">
        <ele>1637.17</ele>
        <time>2018-02-03T09:50:09Z</time>
      </trkpt>
      <trkpt lat="45.15563" lon="5.63461">
        <ele>1643.7</ele>
        <time>2018-02-03T09:50:46Z</time>
      </trkpt>
      <trkpt lat="45.15545" lon="5.6346">
        <ele>1643.41</ele>
        <time>2018-02-03T09:51:16Z</time>
      </trkpt>
      <trkpt lat="45.15526" lon="5.63461">
        <ele>1643.07</ele>
        <time>2018-02-03T09:51:40Z</time>
      </trkpt>
      <trkpt lat="45.15507" lon="5.6346">
        <ele>1651.07</ele>
        <time>2018-02-03T09:52:16Z</time>
      </trkpt>
      <trkpt lat="45.15489" lon="5.63462">
        <ele>1656.98</ele>
        <time>2018-02-03T09:52:42Z</time>
      </trkpt>
      <trkpt lat="45.15471" lon="5.63461">
        <ele>1664.68</ele>
        <time>2018-02-03T09:53:30Z</time>
      </trkpt>
      <trkpt lat="45.15454" lon="5.63472">
        <ele>1669.56</ele>
        <time>2018-02-03T09:54:02Z</time>
      </trkpt>
      <trkpt lat="45.15438" lon="5.63482">
        <ele>1680.27</ele>
        <time>2018-02-03T09:54:30Z</time>
      </trkpt>
      <trkpt lat="45.15421" lon="5.63494">
        <ele>1681.27</ele>
        <time>2018-02-03T09:54:58Z</time>
      </trkpt>
      <trkpt lat="45.15403" lon="5.63499">
        <ele>1681.61</ele>
        <time>2018-02-03T09:55:24Z</time>
      </trkpt>
      <trkpt lat="45.15387" lon="5.6351">
        <ele>1685.83</ele>
        <time>2018-02-03T09:55:57Z</time>
      </trkpt>
      <trkpt lat="45.1537" lon="5.63522">
        <ele>1685.63</ele>
        <time>2018-02-03T09:56:18Z</time>
      </trkpt>
      <trkpt lat="45.15354" lon="5.63534">
        <ele>1684.95</ele>
        <time>2018-02-03T09:56:54Z</time>
      </trkpt>
      <trkpt lat="45.15336" lon="5.63541">
        <ele>1692.27</ele>
        <time>2018-02-03T09:57:37Z</time>
      </trkpt>
      <trkpt lat="45.15318" lon="5.63543">
        <ele>1697.05</ele>
        <time>2018-02-03T09:58:10Z</time>
      </trkpt>
      <trkpt lat="45.153" lon="5.63539">
        <ele>1700.07</ele>
        <time>2018-02-03T09:59:10Z</time>
      </trkpt>
      <trkpt lat="45.15283" lon="5.63529">
        <ele>1714.23</ele>
        <time>2018-02-03T10:00:04Z</time>
      </trkpt>
      <trkpt lat="45.15267" lon="5.63517">
        <ele>1714.93</ele>
        <time>2018-02-03T10:00:21Z</time>
      </trkpt>
      <trkpt lat="45.15251" lon="5.63504">
        <ele>1707.91</ele>
        <time>2018-02-03T10:00:45Z</time>
      </trkpt>
      <trkpt lat="45.15234" lon="5.63494">
        <ele>1710.09</ele>
        <time>2018-02-03T10:01:07Z</time>
      </trkpt>
      <trkpt lat="45.15215" lon="5.6349">
        <ele>1714.06</ele>
        <time>2018-02-03T10:01:39Z</time>
      </trkpt>
      <trkpt lat="45.15198" lon="5.6348">
        <ele>1718.8</ele>
        <time>2018-02-03T10:02:04Z</time>
      </trkpt>
      <trkpt lat="45.1518" lon="5.6348">
        <ele>1721.94</ele>
        <time>2018-02-03T10:02:32Z</time>
      </trkpt>
      <trkpt lat="45.15162" lon="5.63477">
        <ele>1732.8</ele>
        <time>2018-02-03T10:03:02Z</time>
      </trkpt>
      <trkpt lat="45.15144" lon="5.63485">
        <ele>1720.39</ele>
        <time>2018-02-03T10:03:28Z</time>
      </trkpt>
      <trkpt lat="45.15127" lon="5.63492">
        <ele>1726.14</ele>
        <time>2018-02-03T10:03:55Z</time>
      </trkpt>
      <trkpt lat="45.15109" lon="5.63492">
        <ele>1728.45</ele>
        <time>2018-02-03T10:04:20Z</time>
      </trkpt>
      <trkpt lat="45.15091" lon="5.63495">
        <ele>1725.44</ele>
        <time>2018-02-03T10:04:51Z</time>
      </trkpt>
      <trkpt lat="45.15072" lon="5.63501">
        <ele>1728.98</ele>
        <time>2018-02-03T10:05:10Z</time>
      </trkpt>
      <trkpt lat="45.15054" lon="5.63506">
        <ele>1742.45</ele>
        <time>2018-02-03T10:05:54Z</time>
      </trkpt>
      <trkpt lat="45.15037" lon="5.63515">
        <ele>1745.01</ele>
        <time>2018-02-03T10:06:36Z</time>
      </trkpt>
      <trkpt lat="45.15019" lon="5.63519">
        <ele>1758.91</ele>
        <time>2018-02-03T10:07:37Z</time>
      </trkpt>
      <trkpt lat="45.15001" lon="5.63527">
        <ele>1758.84</ele>
        <time>2018-02-03T10:08:07Z</time>
      </trkpt>
      <trkpt lat="45.14983" lon="5.63532">
        <ele>1772.7</ele>
        <time>2018-02-03T10:08:43Z</time>
      </trkpt>
      <trkpt lat="45.14967" lon="5.63543">
        <ele>1777.97</ele>
        <time>2018-02-03T10:09:14Z</time>
      </trkpt>
      <trkpt lat="45.14957" lon="5.63565">
        <ele>1772.81</ele>
        <time>2018-02-03T10:09:49Z</time>
      </trkpt>
      <trkpt lat="45.14945" lon="5.63585">
        <ele>1776.97</ele>
        <time>2018-02-03T10:10:38Z</time>
      </trkpt>
      <trkpt lat="45.14931" lon="5.63601">
        <ele>1782.05</ele>
        <time>2018-02-03T10:11:30Z</time>
      </trkpt>
      <trkpt lat="45.14917" lon="5.63617">
        <ele>1791.33</ele>
        <time>2018-02-03T10:12:17Z</time>
      </trkpt>
      <trkpt lat="45.149" lon="5.63628">
        <ele>1796.03</ele>
        <time>2018-02-03T10:12:56Z</time>
      </trkpt>
      <trkpt lat="45.14883" lon="5.63638">
        <ele>1800.47</ele>
        <time>2018-02-03T10:13:21Z</time>
      </trkpt>
      <trkpt lat="45.14866" lon="5.63648">
        <ele>1810.1</ele>
        <time>2018-02-03T10:13:50Z</time>
      </trkpt>
      <trkpt lat="45.1485" lon="5.63661">
        <ele>1808.36</ele>
        <time>2018-02-03T10:14:21Z</time>
      </trkpt>
      <trkpt lat="45.14835" lon="5.63675">
        <ele>1810.94</ele>
        <time>2018-02-03T10:14:48Z</time>
      </trkpt>
      <trkpt lat="45.1482" lon="5.6369">
        <ele>1815.17</ele>
        <time>2018-02-03T10:15:22Z</time>
      </trkpt>
      <trkpt lat="45.14812" lon="5.63714">
        <ele>1813.43</ele>
        <time>2018-02-03T10:16:07Z</time>
      </trkpt>
      <trkpt lat="45.14805" lon="5.63737">
        <ele>1814.99</ele>
        <time>2018-02-03T10:16:30Z</time>
      </trkpt>
      <trkpt lat="45.14794" lon="5.63758">
        <ele>1817.24</ele>
        <time>2018-02-03T10:17:03Z</time>
      </trkpt>
      <trkpt lat="45.14797" lon="5.63784">
        <ele>1830.96</ele>
        <time>2018-02-03T10:18:17Z</time>
      </trkpt>
      <trkpt lat="45.14779" lon="5.63792">
        <ele>1836.05</ele>
        <time>2018-02-03T10:19:00Z</time>
      </trkpt>
      <trkpt lat="45.1477" lon="5.63814">
        <ele>1848.03</ele>
        <time>2018-02-03T10:20:45Z</time>
      </trkpt>
      <trkpt lat="45.14752" lon="5.63818">
        <ele>1851.56</ele>
        <time>2018-02-03T10:21:19Z</time>
      </trkpt>
      <trkpt lat="45.14759" lon="5.63842">
        <ele>1861.74</ele>
        <time>2018-02-03T10:22:24Z</time>
      </trkpt>
      <trkpt lat="45.1477" lon="5.63862">
        <ele>1867.35</ele>
        <time>2018-02-03T10:23:09Z</time>
      </trkpt>
      <trkpt lat="45.14775" lon="5.63887">
        <ele>1870.93</ele>
        <time>2018-02-03T10:23:53Z</time>
      </trkpt>
      <trkpt lat="45.14772" lon="5.63913">
        <ele>1878.97</ele>
        <time>2018-02-03T10:25:16Z</time>
      </trkpt>
      <trkpt lat="45.14754" lon="5.63919">
        <ele>1897.14</ele>
        <time>2018-02-03T10:26:34Z</time>
      </trkpt>
      <trkpt lat="45.14747" lon="5.63942">
        <ele>1905.05</ele>
        <time>2018-02-03T10:27:42Z</time>
      </trkpt>
      <trkpt lat="45.14738" lon="5.63919">
        <ele>1900.52</ele>
        <time>2018-02-03T10:56:08Z</time>
      </trkpt>
      <trkpt lat="45.14758" lon="5.63921">
        <ele>1893.92</ele>
        <time>2018-02-03T10:56:26Z</time>
      </trkpt>
      <trkpt lat="45.14777" lon="5.63923">
        <ele>1887.05</ele>
        <time>2018-02-03T10:56:34Z</time>
      </trkpt>
      <trkpt lat="45.14768" lon="5.63899">
        <ele>1878.6</ele>
        <time>2018-02-03T10:56:51Z</time>
      </trkpt>
      <trkpt lat="45.14762" lon="5.63874">
        <ele>1874.55</ele>
        <time>2018-02-03T10:57:06Z</time>
      </trkpt>
      <trkpt lat="45.14762" lon="5.63847">
        <ele>1868.68</ele>
        <time>2018-02-03T10:57:30Z</time>
      </trkpt>
      <trkpt lat="45.1478" lon="5.63836">
        <ele>1863.43</ele>
        <time>2018-02-03T10:57:38Z</time>
      </trkpt>
      <trkpt lat="45.148" lon="5.63833">
        <ele>1857.5</ele>
        <time>2018-02-03T10:57:44Z</time>
      </trkpt>
      <trkpt lat="45.1479" lon="5.6381">
        <ele>1847.48</ele>
        <time>2018-02-03T10:57:58Z</time>
      </trkpt>
      <trkpt lat="45.14786" lon="5.63784">
        <ele>1841.15</ele>
        <time>2018-02-03T10:58:13Z</time>
      </trkpt>
      <trkpt lat="45.14792" lon="5.63759">
        <ele>1826.64</ele>
        <time>2018-02-03T10:58:21Z</time>
      </trkpt>
      <trkpt lat="45.14804" lon="5.63737">
        <ele>1821.46</ele>
        <time>2018-02-03T10:58:29Z</time>
      </trkpt>
      <trkpt lat="45.14806" lon="5.63709">
        <ele>1816.69</ele>
        <time>2018-02-03T10:58:34Z</time>
      </trkpt>
      <trkpt lat="45.14816" lon="5.63685">
        <ele>1813.17</ele>
        <time>2018-02-03T10:58:40Z</time>
      </trkpt>
      <trkpt lat="45.14832" lon="5.63668">
        <ele>1811.12</ele>
        <time>2018-02-03T10:58:46Z</time>
      </trkpt>
      <trkpt lat="45.14849" lon="5.63655">
        <ele>1808.47</ele>
        <time>2018-02-03T10:58:50Z</time>
      </trkpt>
      <trkpt lat="45.14866" lon="5.6364">
        <ele>1804.22</ele>
        <time>2018-02-03T10:58:55Z</time>
      </trkpt>
      <trkpt lat="45.14883" lon="5.63629">
        <ele>1801.07</ele>
        <time>2018-02-03T10:59:02Z</time>
      </trkpt>
      <trkpt lat="45.14903" lon="5.6362">
        <ele>1797.71</ele>
        <time>2018-02-03T10:59:07Z</time>
      </trkpt>
      <trkpt lat="45.1492" lon="5.63603">
        <ele>1795.08</ele>
        <time>2018-02-03T10:59:12Z</time>
      </trkpt>
      <trkpt lat="45.14937" lon="5.63591">
        <ele>1789.64</ele>
        <time>2018-02-03T10:59:23Z</time>
      </trkpt>
      <trkpt lat="45.14948" lon="5.63562">
        <ele>1782.57</ele>
        <time>2018-02-03T10:59:29Z</time>
      </trkpt>
      <trkpt lat="45.1496" lon="5.63536">
        <ele>1773.39</ele>
        <time>2018-02-03T10:59:41Z</time>
      </trkpt>
      <trkpt lat="45.14976" lon="5.63524">
        <ele>1772.84</ele>
        <time>2018-02-03T10:59:45Z</time>
      </trkpt>
      <trkpt lat="45.14994" lon="5.6352">
        <ele>1767.09</ele>
        <time>2018-02-03T10:59:51Z</time>
      </trkpt>
      <trkpt lat="45.15013" lon="5.63514">
        <ele>1765.15</ele>
        <time>2018-02-03T10:59:55Z</time>
      </trkpt>
      <trkpt lat="45.1503" lon="5.63506">
        <ele>1756.05</ele>
        <time>2018-02-03T11:00:02Z</time>
      </trkpt>
      <trkpt lat="45.15048" lon="5.63495">
        <ele>1751.47</ele>
        <time>2018-02-03T11:00:07Z</time>
      </trkpt>
      <trkpt lat="45.15071" lon="5.63488">
        <ele>1743.44</ele>
        <time>2018-02-03T11:00:10Z</time>
      </trkpt>
      <trkpt lat="45.15089" lon="5.63485">
        <ele>1737.68</ele>
        <time>2018-02-03T11:00:13Z</time>
      </trkpt>
      <trkpt lat="45.15108" lon="5.63486">
        <ele>1736.14</ele>
        <time>2018-02-03T11:00:17Z</time>
      </trkpt>
      <trkpt lat="45.15129" lon="5.6348">
        <ele>1732.41</ele>
        <time>2018-02-03T11:00:22Z</time>
      </trkpt>
      <trkpt lat="45.1515" lon="5.63474">
        <ele>1730.61</ele>
        <time>2018-02-03T11:00:26Z</time>
      </trkpt>
      <trkpt lat="45.15173" lon="5.63473">
        <ele>1724.6</ele>
        <time>2018-02-03T11:00:30Z</time>
      </trkpt>
      <trkpt lat="45.15194" lon="5.63476">
        <ele>1722.93</ele>
        <time>2018-02-03T11:00:34Z</time>
      </trkpt>
      <trkpt lat="45.15213" lon="5.63483">
        <ele>1718.52</ele>
        <time>2018-02-03T11:00:39Z</time>
      </trkpt>
      <trkpt lat="45.15233" lon="5.63492">
        <ele>1718.36</ele>
        <time>2018-02-03T11:00:46Z</time>
      </trkpt>
      <trkpt lat="45.15251" lon="5.63506">
        <ele>1720.17</ele>
        <time>2018-02-03T11:00:52Z</time>
      </trkpt>
      <trkpt lat="45.15265" lon="5.63522">
        <ele>1713.7</ele>
        <time>2018-02-03T11:01:00Z</time>
      </trkpt>
      <trkpt lat="45.15284" lon="5.63526">
        <ele>1705.84</ele>
        <time>2018-02-03T11:01:14Z</time>
      </trkpt>
      <trkpt lat="45.15298" lon="5.63508">
        <ele>1703.52</ele>
        <time>2018-02-03T11:01:17Z</time>
      </trkpt>
      <trkpt lat="45.1532" lon="5.63513">
        <ele>1698.3</ele>
        <time>2018-02-03T11:01:24Z</time>
      </trkpt>
      <trkpt lat="45.15339" lon="5.63519">
        <ele>1690.67</ele>
        <time>2018-02-03T11:01:30Z</time>
      </trkpt>
      <trkpt lat="45.15358" lon="5.63514">
        <ele>1688.35</ele>
        <time>2018-02-03T11:01:35Z</time>
      </trkpt>
      <trkpt lat="45.15374" lon="5.63504">
        <ele>1684.48</ele>
        <time>2018-02-03T11:01:39Z</time>
      </trkpt>
      <trkpt lat="45.15393" lon="5.63494">
        <ele>1682.36</ele>
        <time>2018-02-03T11:01:43Z</time>
      </trkpt>
      <trkpt lat="45.15411" lon="5.63489">
        <ele>1675.98</ele>
        <time>2018-02-03T11:01:46Z</time>
      </trkpt>
      <trkpt lat="45.15429" lon="5.63479">
        <ele>1673.01</ele>
        <time>2018-02-03T11:01:50Z</time>
      </trkpt>
      <trkpt lat="45.15444" lon="5.63461">
        <ele>1672.23</ele>
        <time>2018-02-03T11:01:55Z</time>
      </trkpt>
      <trkpt lat="45.15464" lon="5.63454">
        <ele>1670.29</ele>
        <time>2018-02-03T11:02:01Z</time>
      </trkpt>
      <trkpt lat="45.15482" lon="5.63448">
        <ele>1666.88</ele>
        <time>2018-02-03T11:02:05Z</time>
      </trkpt>
      <trkpt lat="45.155" lon="5.63448">
        <ele>1665.37</ele>
        <time>2018-02-03T11:02:09Z</time>
      </trkpt>
      <trkpt lat="45.15521" lon="5.63449">
        <ele>1662.39</ele>
        <time>2018-02-03T11:02:13Z</time>
      </trkpt>
      <trkpt lat="45.15541" lon="5.63449">
        <ele>1659.18</ele>
        <time>2018-02-03T11:02:17Z</time>
      </trkpt>
      <trkpt lat="45.15559" lon="5.63451">
        <ele>1656.24</ele>
        <time>2018-02-03T11:02:21Z</time>
      </trkpt>
      <trkpt lat="45.15583" lon="5.63449">
        <ele>1652.18</ele>
        <time>2018-02-03T11:02:25Z</time>
      </trkpt>
      <trkpt lat="45.15606" lon="5.63451">
        <ele>1653.39</ele>
        <time>2018-02-03T11:02:27Z</time>
      </trkpt>
      <trkpt lat="45.15626" lon="5.63456">
        <ele>1648.06</ele>
        <time>2018-02-03T11:02:31Z</time>
      </trkpt>
      <trkpt lat="45.15643" lon="5.63475">
        <ele>1641.24</ele>
        <time>2018-02-03T11:02:36Z</time>
      </trkpt>
      <trkpt lat="45.15647" lon="5.635">
        <ele>1634.98</ele>
        <time>2018-02-03T11:02:39Z</time>
      </trkpt>
      <trkpt lat="45.15628" lon="5.63508">
        <ele>1628.55</ele>
        <time>2018-02-03T11:02:43Z</time>
      </trkpt>
      <trkpt lat="45.15608" lon="5.63511">
        <ele>1621.14</ele>
        <time>2018-02-03T11:02:58Z</time>
      </trkpt>
      <trkpt lat="45.1559" lon="5.63508">
        <ele>1620.33</ele>
        <time>2018-02-03T11:03:02Z</time>
      </trkpt>
      <trkpt lat="45.15573" lon="5.63524">
        <ele>1620.35</ele>
        <time>2018-02-03T11:03:12Z</time>
      </trkpt>
      <trkpt lat="45.15582" lon="5.63549">
        <ele>1622.04</ele>
        <time>2018-02-03T11:03:17Z</time>
      </trkpt>
      <trkpt lat="45.15596" lon="5.6357">
        <ele>1618.49</ele>
        <time>2018-02-03T11:03:21Z</time>
      </trkpt>
      <trkpt lat="45.15602" lon="5.63595">
        <ele>1611.36</ele>
        <time>2018-02-03T11:03:27Z</time>
      </trkpt>
      <trkpt lat="45.15608" lon="5.63626">
        <ele>1607.36</ele>
        <time>2018-02-03T11:03:32Z</time>
      </trkpt>
      <trkpt lat="45.15614" lon="5.63656">
        <ele>1602.37</ele>
        <time>2018-02-03T11:03:37Z</time>
      </trkpt>
      <trkpt lat="45.15636" lon="5.63657">
        <ele>1601.16</ele>
        <time>2018-02-03T11:03:42Z</time>
      </trkpt>
      <trkpt lat="45.15647" lon="5.63636">
        <ele>1600.35</ele>
        <time>2018-02-03T11:03:46Z</time>
      </trkpt>
      <trkpt lat="45.15665" lon="5.63645">
        <ele>1595.41</ele>
        <time>2018-02-03T11:03:57Z</time>
      </trkpt>
      <trkpt lat="45.15684" lon="5.63647">
        <ele>1585.01</ele>
        <time>2018-02-03T11:04:02Z</time>
      </trkpt>
      <trkpt lat="45.157" lon="5.63661">
        <ele>1579.19</ele>
        <time>2018-02-03T11:04:07Z</time>
      </trkpt>
      <trkpt lat="45.15715" lon="5.63678">
        <ele>1573.43</ele>
        <time>2018-02-03T11:04:11Z</time>
      </trkpt>
      <trkpt lat="45.15735" lon="5.63676">
        <ele>1563.34</ele>
        <time>2018-02-03T11:04:26Z</time>
      </trkpt>
      <trkpt lat="45.15757" lon="5.63684">
        <ele>1563.14</ele>
        <time>2018-02-03T11:04:32Z</time>
      </trkpt>
      <trkpt lat="45.15776" lon="5.63688">
        <ele>1561.17</ele>
        <time>2018-02-03T11:04:35Z</time>
      </trkpt>
      <trkpt lat="45.15795" lon="5.63699">
        <ele>1553.17</ele>
        <time>2018-02-03T11:05:25Z</time>
      </trkpt>
      <trkpt lat="45.15815" lon="5.63701">
        <ele>1549.39</ele>
        <time>2018-02-03T11:05:30Z</time>
      </trkpt>
      <trkpt lat="45.15838" lon="5.637">
        <ele>1543.16</ele>
        <time>2018-02-03T11:05:36Z</time>
      </trkpt>
      <trkpt lat="45.15856" lon="5.637">
        <ele>1542.08</ele>
        <time>2018-02-03T11:05:39Z</time>
      </trkpt>
      <trkpt lat="45.15879" lon="5.63707">
        <ele>1537.3</ele>
        <time>2018-02-03T11:05:42Z</time>
      </trkpt>
      <trkpt lat="45.15901" lon="5.63713">
        <ele>1531.83</ele>
        <time>2018-02-03T11:05:45Z</time>
      </trkpt>
      <trkpt lat="45.15925" lon="5.63717">
        <ele>1527.58</ele>
        <time>2018-02-03T11:05:48Z</time>
      </trkpt>
      <trkpt lat="45.15945" lon="5.63722">
        <ele>1524.14</ele>
        <time>2018-02-03T11:05:51Z</time>
      </trkpt>
      <trkpt lat="45.15965" lon="5.63727">
        <ele>1519.82</ele>
        <time>2018-02-03T11:05:56Z</time>
      </trkpt>
      <trkpt lat="45.15983" lon="5.63722">
        <ele>1514.05</ele>
        <time>2018-02-03T11:06:12Z</time>
      </trkpt>
      <trkpt lat="45.15984" lon="5.63694">
        <ele>1513.07</ele>
        <time>2018-02-03T11:06:41Z</time>
      </trkpt>
      <trkpt lat="45.15978" lon="5.63669">
        <ele>1514.15</ele>
        <time>2018-02-03T11:06:47Z</time>
      </trkpt>
      <trkpt lat="45.15979" lon="5.63642">
        <ele>1510.41</ele>
        <time>2018-02-03T11:06:52Z</time>
      </trkpt>
      <trkpt lat="45.1597" lon="5.63617">
        <ele>1508.36</ele>
        <time>2018-02-03T11:06:57Z</time>
      </trkpt>
      <trkpt lat="45.15968" lon="5.6359">
        <ele>1504.75</ele>
        <time>2018-02-03T11:07:01Z</time>
      </trkpt>
      <trkpt lat="45.15966" lon="5.63563">
        <ele>1498.84</ele>
        <time>2018-02-03T11:07:06Z</time>
      </trkpt>
      <trkpt lat="45.15966" lon="5.63534">
        <ele>1495.47</ele>
        <time>2018-02-03T11:07:12Z</time>
      </trkpt>
      <trkpt lat="45.15966" lon="5.63505">
        <ele>1491.69</ele>
        <time>2018-02-03T11:07:17Z</time>
      </trkpt>
      <trkpt lat="45.15963" lon="5.63479">
        <ele>1487.53</ele>
        <time>2018-02-03T11:07:22Z</time>
      </trkpt>
      <trkpt lat="45.15965" lon="5.63453">
        <ele>1478.77</ele>
        <time>2018-02-03T11:07:27Z</time>
      </trkpt>
      <trkpt lat="45.15969" lon="5.63427">
        <ele>1471.72</ele>
        <time>2018-02-03T11:07:33Z</time>
      </trkpt>
      <trkpt lat="45.15991" lon="5.63406">
        <ele>1466.4</ele>
        <time>2018-02-03T11:07:38Z</time>
      </trkpt>
      <trkpt lat="45.16006" lon="5.63392">
        <ele>1457.4</ele>
        <time>2018-02-03T11:07:41Z</time>
      </trkpt>
      <trkpt lat="45.16023" lon="5.63372">
        <ele>1452.4</ele>
        <time>2018-02-03T11:07:45Z</time>
      </trkpt>
      <trkpt lat="45.16005" lon="5.63357">
        <ele>1446.12</ele>
        <time>2018-02-03T11:07:49Z</time>
      </trkpt>
      <trkpt lat="45.15993" lon="5.63334">
        <ele>1442.08</ele>
        <time>2018-02-03T11:07:54Z</time>
      </trkpt>
      <trkpt lat="45.15977" lon="5.63321">
        <ele>1441.27</ele>
        <time>2018-02-03T11:07:58Z</time>
      </trkpt>
      <trkpt lat="45.15956" lon="5.63316">
        <ele>1433.23</ele>
        <time>2018-02-03T11:08:02Z</time>
      </trkpt>
      <trkpt lat="45.15938" lon="5.63314">
        <ele>1429.6</ele>
        <time>2018-02-03T11:08:06Z</time>
      </trkpt>
      <trkpt lat="45.15919" lon="5.63308">
        <ele>1423.22</ele>
        <time>2018-02-03T11:08:10Z</time>
      </trkpt>
      <trkpt lat="45.15901" lon="5.63295">
        <ele>1417.47</ele>
        <time>2018-02-03T11:08:16Z</time>
      </trkpt>
      <trkpt lat="45.15906" lon="5.6327">
        <ele>1409.47</ele>
        <time>2018-02-03T11:09:04Z</time>
      </trkpt>
      <trkpt lat="45.15921" lon="5.63254">
        <ele>1398.51</ele>
        <time>2018-02-03T11:09:22Z</time>
      </trkpt>
      <trkpt lat="45.15933" lon="5.63234">
        <ele>1391.48</ele>
        <time>2018-02-03T11:09:30Z</time>
      </trkpt>
      <trkpt lat="45.15941" lon="5.63211">
        <ele>1380.64</ele>
        <time>2018-02-03T11:09:41Z</time>
      </trkpt>
      <trkpt lat="45.15952" lon="5.63187">
        <ele>1368.85</ele>
        <time>2018-02-03T11:09:49Z</time>
      </trkpt>
      <trkpt lat="45.15956" lon="5.63161">
        <ele>1361.48</ele>
        <time>2018-02-03T11:09:58Z</time>
      </trkpt>
      <trkpt lat="45.1597" lon="5.63144">
        <ele>1353.51</ele>
        <time>2018-02-03T11:10:05Z</time>
      </trkpt>
      <trkpt lat="45.15984" lon="5.63127">
        <ele>1346.47</ele>
        <time>2018-02-03T11:10:18Z</time>
      </trkpt>
      <trkpt lat="45.16" lon="5.6311">
        <ele>1339.7</ele>
        <time>2018-02-03T11:10:24Z</time>
      </trkpt>
      <trkpt lat="45.16014" lon="5.63093">
        <ele>1333.75</ele>
        <time>2018-02-03T11:10:30Z</time>
      </trkpt>
      <trkpt lat="45.16025" lon="5.63073">
        <ele>1320.24</ele>
        <time>2018-02-03T11:10:39Z</time>
      </trkpt>
      <trkpt lat="45.16043" lon="5.6306">
        <ele>1304.55</ele>
        <time>2018-02-03T11:10:54Z</time>
      </trkpt>
      <trkpt lat="45.1606" lon="5.63048">
        <ele>1294.48</ele>
        <time>2018-02-03T11:11:02Z</time>
      </trkpt>
      <trkpt lat="45.16069" lon="5.63023">
        <ele>1289.36</ele>
        <time>2018-02-03T11:11:08Z</time>
      </trkpt>
      <trkpt lat="45.16088" lon="5.63019">
        <ele>1285.75</ele>
        <time>2018-02-03T11:11:12Z</time>
      </trkpt>
      <trkpt lat="45.16107" lon="5.63019">
        <ele>1279.5</ele>
        <time>2018-02-03T11:11:18Z</time>
      </trkpt>
      <trkpt lat="45.16118" lon="5.62993">
        <ele>1271.58</ele>
        <time>2018-02-03T11:11:24Z</time>
      </trkpt>
      <trkpt lat="45.16121" lon="5.62965">
        <ele>1261.14</ele>
        <time>2018-02-03T11:12:18Z</time>
      </trkpt>
      <trkpt lat="45.16131" lon="5.62941">
        <ele>1252.21</ele>
        <time>2018-02-03T11:12:22Z</time>
      </trkpt>
      <trkpt lat="45.16141" lon="5.62917">
        <ele>1246</ele>
        <time>2018-02-03T11:12:26Z</time>
      </trkpt>
      <trkpt lat="45.16157" lon="5.629">
        <ele>1238.54</ele>
        <time>2018-02-03T11:12:30Z</time>
      </trkpt>
      <trkpt lat="45.16174" lon="5.62887">
        <ele>1236.08</ele>
        <time>2018-02-03T11:12:36Z</time>
      </trkpt>
      <trkpt lat="45.16179" lon="5.62863">
        <ele>1232.01</ele>
        <time>2018-02-03T11:12:41Z</time>
      </trkpt>
      <trkpt lat="45.16202" lon="5.62865">
        <ele>1229.83</ele>
        <time>2018-02-03T11:12:44Z</time>
      </trkpt>
      <trkpt lat="45.16221" lon="5.62853">
        <ele>1222.2</ele>
        <time>2018-02-03T11:12:48Z</time>
      </trkpt>
      <trkpt lat="45.1624" lon="5.62835">
        <ele>1221.02</ele>
        <time>2018-02-03T11:12:51Z</time>
      </trkpt>
      <trkpt lat="45.16258" lon="5.62809">
        <ele>1211.33</ele>
        <time>2018-02-03T11:12:55Z</time>
      </trkpt>
      <trkpt lat="45.16276" lon="5.62791">
        <ele>1206.59</ele>
        <time>2018-02-03T11:12:58Z</time>
      </trkpt>
      <trkpt lat="45.16295" lon="5.62777">
        <ele>1199.71</ele>
        <time>2018-02-03T11:13:01Z</time>
      </trkpt>
      <trkpt lat="45.16314" lon="5.62772">
        <ele>1195.08</ele>
        <time>2018-02-03T11:13:04Z</time>
      </trkpt>
      <trkpt lat="45.16332" lon="5.62763">
        <ele>1190.58</ele>
        <time>2018-02-03T11:13:07Z</time>
      </trkpt>
      <trkpt lat="45.16322" lon="5.62734">
        <ele>1186.77</ele>
        <time>2018-02-03T11:13:11Z</time>
      </trkpt>
      <trkpt lat="45.1633" lon="5.62709">
        <ele>1185.08</ele>
        <time>2018-02-03T11:13:15Z</time>
      </trkpt>
      <trkpt lat="45.16339" lon="5.62678">
        <ele>1183.72</ele>
        <time>2018-02-03T11:13:20Z</time>
      </trkpt>
      <trkpt lat="45.16357" lon="5.62666">
        <ele>1179.48</ele>
        <time>2018-02-03T11:13:25Z</time>
      </trkpt>
      <trkpt lat="45.16375" lon="5.62658">
        <ele>1172</ele>
        <time>2018-02-03T11:13:42Z</time>
      </trkpt>
      <trkpt lat="45.16393" lon="5.62659">
        <ele>1170.5</ele>
        <time>2018-02-03T11:18:24Z</time>
      </trkpt>
      <trkpt lat="45.16411" lon="5.62669">
        <ele>1165.13</ele>
        <time>2018-02-03T11:18:39Z</time>
      </trkpt>
      <trkpt lat="45.16427" lon="5.62682">
        <ele>1163.09</ele>
        <time>2018-02-03T11:23:54Z</time>
      </trkpt>
      <trkpt lat="45.16446" lon="5.6269">
        <ele>1168.34</ele>
        <time>2018-02-03T11:24:00Z</time>
      </trkpt>
      <trkpt lat="45.1647" lon="5.62697">
        <ele>1174.75</ele>
        <time>2018-02-03T11:24:04Z</time>
      </trkpt>
      <trkpt lat="45.16493" lon="5.62686">
        <ele>1175.74</ele>
        <time>2018-02-03T11:24:07Z</time>
      </trkpt>
      <trkpt lat="45.16513" lon="5.6267">
        <ele>1173.5</ele>
        <time>2018-02-03T11:24:09Z</time>
      </trkpt>
      <trkpt lat="45.16529" lon="5.62642">
        <ele>1173.79</ele>
        <time>2018-02-03T11:24:11Z</time>
      </trkpt>
      <trkpt lat="45.16547" lon="5.62615">
        <ele>1174.24</ele>
        <time>2018-02-03T11:24:13Z</time>
      </trkpt>
      <trkpt lat="45.16566" lon="5.62585">
        <ele>1175.68</ele>
        <time>2018-02-03T11:24:15Z</time>
      </trkpt>
      <trkpt lat="45.1658" lon="5.62554">
        <ele>1176.23</ele>
        <time>2018-02-03T11:24:17Z</time>
      </trkpt>
      <trkpt lat="45.16595" lon="5.62526">
        <ele>1174.87</ele>
        <time>2018-02-03T11:24:19Z</time>
      </trkpt>
      <trkpt lat="45.16606" lon="5.62489">
        <ele>1172.3</ele>
        <time>2018-02-03T11:24:21Z</time>
      </trkpt>
      <trkpt lat="45.16606" lon="5.62459">
        <ele>1172.07</ele>
        <time>2018-02-03T11:24:23Z</time>
      </trkpt>
      <trkpt lat="45.16627" lon="5.6244">
        <ele>1170.23</ele>
        <time>2018-02-03T11:24:25Z</time>
      </trkpt>
      <trkpt lat="45.1665" lon="5.62429">
        <ele>1167.97</ele>
        <time>2018-02-03T11:24:27Z</time>
      </trkpt>
      <trkpt lat="45.1667" lon="5.62438">
        <ele>1167.13</ele>
        <time>2018-02-03T11:24:29Z</time>
      </trkpt>
      <trkpt lat="45.16696" lon="5.62462">
        <ele>1167.06</ele>
        <time>2018-02-03T11:24:31Z</time>
      </trkpt>
      <trkpt lat="45.16717" lon="5.62491">
        <ele>1168.59</ele>
        <time>2018-02-03T11:24:33Z</time>
      </trkpt>
      <trkpt lat="45.16738" lon="5.62513">
        <ele>1168.1</ele>
        <time>2018-02-03T11:24:35Z</time>
      </trkpt>
      <trkpt lat="45.1676" lon="5.62521">
        <ele>1168.96</ele>
        <time>2018-02-03T11:24:37Z</time>
      </trkpt>
      <trkpt lat="45.16778" lon="5.62505">
        <ele>1168.32</ele>
        <time>2018-02-03T11:24:38Z</time>
      </trkpt>
      <trkpt lat="45.16809" lon="5.62495">
        <ele>1168.07</ele>
        <time>2018-02-03T11:24:40Z</time>
      </trkpt>
      <trkpt lat="45.1684" lon="5.62474">
        <ele>1166.93</ele>
        <time>2018-02-03T11:24:42Z</time>
      </trkpt>
      <trkpt lat="45.16863" lon="5.62456">
        <ele>1167.25</ele>
        <time>2018-02-03T11:24:44Z</time>
      </trkpt>
      <trkpt lat="45.16888" lon="5.62453">
        <ele>1167.07</ele>
        <time>2018-02-03T11:24:46Z</time>
      </trkpt>
      <trkpt lat="45.16911" lon="5.62466">
        <ele>1167.75</ele>
        <time>2018-02-03T11:24:48Z</time>
      </trkpt>
      <trkpt lat="45.16924" lon="5.62496">
        <ele>1168.02</ele>
        <time>2018-02-03T11:24:50Z</time>
      </trkpt>
      <trkpt lat="45.16925" lon="5.62531">
        <ele>1168.75</ele>
        <time>2018-02-03T11:24:52Z</time>
      </trkpt>
      <trkpt lat="45.1692" lon="5.62566">
        <ele>1168.11</ele>
        <time>2018-02-03T11:24:54Z</time>
      </trkpt>
      <trkpt lat="45.16915" lon="5.62601">
        <ele>1168.26</ele>
        <time>2018-02-03T11:24:56Z</time>
      </trkpt>
      <trkpt lat="45.16917" lon="5.62636">
        <ele>1168.07</ele>
        <time>2018-02-03T11:24:58Z</time>
      </trkpt>
      <trkpt lat="45.16925" lon="5.62666">
        <ele>1167.14</ele>
        <time>2018-02-03T11:25:00Z</time>
      </trkpt>
      <trkpt lat="45.16944" lon="5.62684">
        <ele>1167.76</ele>
        <time>2018-02-03T11:25:02Z</time>
      </trkpt>
      <trkpt lat="45.1697" lon="5.62697">
        <ele>1168.93</ele>
        <time>2018-02-03T11:25:04Z</time>
      </trkpt>
      <trkpt lat="45.16995" lon="5.62712">
        <ele>1171.35</ele>
        <time>2018-02-03T11:25:06Z</time>
      </trkpt>
      <trkpt lat="45.17021" lon="5.62727">
        <ele>1171.99</ele>
        <time>2018-02-03T11:25:08Z</time>
      </trkpt>
      <trkpt lat="45.17039" lon="5.62746">
        <ele>1172.25</ele>
        <time>2018-02-03T11:25:10Z</time>
      </trkpt>
      <trkpt lat="45.1705" lon="5.62767">
        <ele>1171.37</ele>
        <time>2018-02-03T11:25:12Z</time>
      </trkpt>
      <trkpt lat="45.17054" lon="5.62792">
        <ele>1171.08</ele>
        <time>2018-02-03T11:25:14Z</time>
      </trkpt>
      <trkpt lat="45.17055" lon="5.62829">
        <ele>1170.99</ele>
        <time>2018-02-03T11:25:17Z</time>
      </trkpt>
      <trkpt lat="45.17057" lon="5.62856">
        <ele>1169.43</ele>
        <time>2018-02-03T11:25:19Z</time>
      </trkpt>
      <trkpt lat="45.17059" lon="5.62883">
        <ele>1167.26</ele>
        <time>2018-02-03T11:25:21Z</time>
      </trkpt>
      <trkpt lat="45.17059" lon="5.6291">
        <ele>1166.16</ele>
        <time>2018-02-03T11:25:23Z</time>
      </trkpt>
      <trkpt lat="45.17059" lon="5.62946">
        <ele>1165.35</ele>
        <time>2018-02-03T11:25:26Z</time>
      </trkpt>
      <trkpt lat="45.17056" lon="5.62972">
        <ele>1164.15</ele>
        <time>2018-02-03T11:25:29Z</time>
      </trkpt>
      <trkpt lat="45.17065" lon="5.62994">
        <ele>1163.35</ele>
        <time>2018-02-03T11:25:32Z</time>
      </trkpt>
      <trkpt lat="45.17084" lon="5.63019">
        <ele>1160.47</ele>
        <time>2018-02-03T11:25:35Z</time>
      </trkpt>
      <trkpt lat="45.17099" lon="5.63047">
        <ele>1160.97</ele>
        <time>2018-02-03T11:25:38Z</time>
      </trkpt>
      <trkpt lat="45.17112" lon="5.63073">
        <ele>1162.4</ele>
        <time>2018-02-03T11:25:42Z</time>
      </trkpt>
      <trkpt lat="45.17135" lon="5.63073">
        <ele>1163.07</ele>
        <time>2018-02-03T11:25:47Z</time>
      </trkpt>
      <trkpt lat="45.17158" lon="5.63063">
        <ele>1159.28</ele>
        <time>2018-02-03T11:25:50Z</time>
      </trkpt>
      <trkpt lat="45.17176" lon="5.63057">
        <ele>1156.55</ele>
        <time>2018-02-03T11:25:52Z</time>
      </trkpt>
      <trkpt lat="45.17199" lon="5.63053">
        <ele>1153.21</ele>
        <time>2018-02-03T11:25:55Z</time>
      </trkpt>
      <trkpt lat="45.17228" lon="5.63062">
        <ele>1156.13</ele>
        <time>2018-02-03T11:25:58Z</time>
      </trkpt>
      <trkpt lat="45.17242" lon="5.63092">
        <ele>1154.29</ele>
        <time>2018-02-03T11:26:01Z</time>
      </trkpt>
      <trkpt lat="45.17245" lon="5.6312">
        <ele>1153.86</ele>
        <time>2018-02-03T11:26:03Z</time>
      </trkpt>
      <trkpt lat="45.17246" lon="5.63153">
        <ele>1152.42</ele>
        <time>2018-02-03T11:26:05Z</time>
      </trkpt>
      <trkpt lat="45.17251" lon="5.63214">
        <ele>1152.08</ele>
        <time>2018-02-03T11:26:08Z</time>
      </trkpt>
      <trkpt lat="45.17249" lon="5.63259">
        <ele>1151.35</ele>
        <time>2018-02-03T11:26:10Z</time>
      </trkpt>
      <trkpt lat="45.17241" lon="5.63304">
        <ele>1148.98</ele>
        <time>2018-02-03T11:26:12Z</time>
      </trkpt>
      <trkpt lat="45.1724" lon="5.63347">
        <ele>1147.92</ele>
        <time>2018-02-03T11:26:14Z</time>
      </trkpt>
      <trkpt lat="45.17242" lon="5.63391">
        <ele>1146.22</ele>
        <time>2018-02-03T11:26:16Z</time>
      </trkpt>
      <trkpt lat="45.17248" lon="5.63436">
        <ele>1140.81</ele>
        <time>2018-02-03T11:26:18Z</time>
      </trkpt>
      <trkpt lat="45.17249" lon="5.63477">
        <ele>1138.51</ele>
        <time>2018-02-03T11:26:20Z</time>
      </trkpt>
      <trkpt lat="45.17244" lon="5.63516">
        <ele>1135.99</ele>
        <time>2018-02-03T11:26:22Z</time>
      </trkpt>
      <trkpt lat="45.17234" lon="5.63555">
        <ele>1135.13</ele>
        <time>2018-02-03T11:26:24Z</time>
      </trkpt>
      <trkpt lat="45.17218" lon="5.63594">
        <ele>1130.23</ele>
        <time>2018-02-03T11:26:26Z</time>
      </trkpt>
      <trkpt lat="45.17199" lon="5.63628">
        <ele>1128.24</ele>
        <time>2018-02-03T11:26:28Z</time>
      </trkpt>
      <trkpt lat="45.17178" lon="5.63657">
        <ele>1127.37</ele>
        <time>2018-02-03T11:26:30Z</time>
      </trkpt>
      <trkpt lat="45.17151" lon="5.6368">
        <ele>1127.78</ele>
        <time>2018-02-03T11:26:32Z</time>
      </trkpt>
      <trkpt lat="45.17132" lon="5.63686">
        <ele>1122.28</ele>
        <time>2018-02-03T11:26:34Z</time>
      </trkpt>
      <trkpt lat="45.17107" lon="5.63688">
        <ele>1119.55</ele>
        <time>2018-02-03T11:26:36Z</time>
      </trkpt>
      <trkpt lat="45.17082" lon="5.63694">
        <ele>1115.87</ele>
        <time>2018-02-03T11:26:38Z</time>
      </trkpt>
      <trkpt lat="45.17066" lon="5.63712">
        <ele>1112.6</ele>
        <time>2018-02-03T11:26:40Z</time>
      </trkpt>
      <trkpt lat="45.17052" lon="5.63736">
        <ele>1109.79</ele>
        <time>2018-02-03T11:26:42Z</time>
      </trkpt>
      <trkpt lat="45.17036" lon="5.63762">
        <ele>1106.81</ele>
        <time>2018-02-03T11:26:44Z</time>
      </trkpt>
      <trkpt lat="45.17023" lon="5.63789">
        <ele>1105.42</ele>
        <time>2018-02-03T11:26:46Z</time>
      </trkpt>
      <trkpt lat="45.17006" lon="5.63812">
        <ele>1104.38</ele>
        <time>2018-02-03T11:26:48Z</time>
      </trkpt>
      <trkpt lat="45.16988" lon="5.63834">
        <ele>1101.56</ele>
        <time>2018-02-03T11:26:50Z</time>
      </trkpt>
      <trkpt lat="45.16968" lon="5.63857">
        <ele>1101.09</ele>
        <time>2018-02-03T11:26:52Z</time>
      </trkpt>
      <trkpt lat="45.16944" lon="5.63879">
        <ele>1100.14</ele>
        <time>2018-02-03T11:26:54Z</time>
      </trkpt>
      <trkpt lat="45.16918" lon="5.63901">
        <ele>1099.15</ele>
        <time>2018-02-03T11:26:56Z</time>
      </trkpt>
      <trkpt lat="45.16892" lon="5.63916">
        <ele>1099.76</ele>
        <time>2018-02-03T11:26:58Z</time>
      </trkpt>
      <trkpt lat="45.16872" lon="5.63917">
        <ele>1098.83</ele>
        <time>2018-02-03T11:27:00Z</time>
      </trkpt>
      <trkpt lat="45.16854" lon="5.63915">
        <ele>1098.82</ele>
        <time>2018-02-03T11:27:02Z</time>
      </trkpt>
      <trkpt lat="45.16836" lon="5.63926">
        <ele>1094.91</ele>
        <time>2018-02-03T11:27:05Z</time>
      </trkpt>
      <trkpt lat="45.16827" lon="5.63949">
        <ele>1088.75</ele>
        <time>2018-02-03T11:27:11Z</time>
      </trkpt>
      <trkpt lat="45.16844" lon="5.63967">
        <ele>1089.2</ele>
        <time>2018-02-03T11:27:17Z</time>
      </trkpt>
      <trkpt lat="45.16873" lon="5.63969">
        <ele>1090.88</ele>
        <time>2018-02-03T11:27:20Z</time>
      </trkpt>
      <trkpt lat="45.16891" lon="5.63954">
        <ele>1090.33</ele>
        <time>2018-02-03T11:27:22Z</time>
      </trkpt>
      <trkpt lat="45.16909" lon="5.6394">
        <ele>1093.29</ele>
        <time>2018-02-03T11:27:24Z</time>
      </trkpt>
      <trkpt lat="45.16928" lon="5.63931">
        <ele>1096.29</ele>
        <time>2018-02-03T11:27:26Z</time>
      </trkpt>
      <trkpt lat="45.1695" lon="5.63919">
        <ele>1096.77</ele>
        <time>2018-02-03T11:27:28Z</time>
      </trkpt>
      <trkpt lat="45.16972" lon="5.63907">
        <ele>1097.72</ele>
        <time>2018-02-03T11:27:30Z</time>
      </trkpt>
      <trkpt lat="45.16999" lon="5.63897">
        <ele>1095.71</ele>
        <time>2018-02-03T11:27:32Z</time>
      </trkpt>
      <trkpt lat="45.17027" lon="5.63886">
        <ele>1093.71</ele>
        <time>2018-02-03T11:27:34Z</time>
      </trkpt>
      <trkpt lat="45.17055" lon="5.6388">
        <ele>1090.38</ele>
        <time>2018-02-03T11:27:36Z</time>
      </trkpt>
      <trkpt lat="45.17085" lon="5.63878">
        <ele>1090.08</ele>
        <time>2018-02-03T11:27:38Z</time>
      </trkpt>
      <trkpt lat="45.17112" lon="5.63883">
        <ele>1086.83</ele>
        <time>2018-02-03T11:27:40Z</time>
      </trkpt>
      <trkpt lat="45.1714" lon="5.63881">
        <ele>1084.02</ele>
        <time>2018-02-03T11:27:42Z</time>
      </trkpt>
      <trkpt lat="45.17168" lon="5.6388">
        <ele>1081.74</ele>
        <time>2018-02-03T11:27:44Z</time>
      </trkpt>
      <trkpt lat="45.17198" lon="5.63883">
        <ele>1077.47</ele>
        <time>2018-02-03T11:27:46Z</time>
      </trkpt>
      <trkpt lat="45.17224" lon="5.63906">
        <ele>1074.57</ele>
        <time>2018-02-03T11:27:48Z</time>
      </trkpt>
      <trkpt lat="45.1725" lon="5.63932">
        <ele>1073.4</ele>
        <time>2018-02-03T11:27:50Z</time>
      </trkpt>
      <trkpt lat="45.17277" lon="5.63953">
        <ele>1073.78</ele>
        <time>2018-02-03T11:27:52Z</time>
      </trkpt>
      <trkpt lat="45.17302" lon="5.63958">
        <ele>1071.71</ele>
        <time>2018-02-03T11:27:54Z</time>
      </trkpt>
      <trkpt lat="45.17322" lon="5.63955">
        <ele>1070.41</ele>
        <time>2018-02-03T11:27:56Z</time>
      </trkpt>
      <trkpt lat="45.17347" lon="5.63948">
        <ele>1067.77</ele>
        <time>2018-02-03T11:27:58Z</time>
      </trkpt>
      <trkpt lat="45.17372" lon="5.63941">
        <ele>1066.2</ele>
        <time>2018-02-03T11:28:00Z</time>
      </trkpt>
      <trkpt lat="45.17398" lon="5.63941">
        <ele>1063.54</ele>
        <time>2018-02-03T11:28:02Z</time>
      </trkpt>
      <trkpt lat="45.17424" lon="5.63946">
        <ele>1062.39</ele>
        <time>2018-02-03T11:28:04Z</time>
      </trkpt>
      <trkpt lat="45.17439" lon="5.63968">
        <ele>1059.56</ele>
        <time>2018-02-03T11:28:06Z</time>
      </trkpt>
      <trkpt lat="45.17453" lon="5.63994">
        <ele>1056.79</ele>
        <time>2018-02-03T11:28:08Z</time>
      </trkpt>
      <trkpt lat="45.1746" lon="5.6403">
        <ele>1056.82</ele>
        <time>2018-02-03T11:28:10Z</time>
      </trkpt>
      <trkpt lat="45.17462" lon="5.64067">
        <ele>1056.82</ele>
        <time>2018-02-03T11:28:12Z</time>
      </trkpt>
      <trkpt lat="45.17458" lon="5.64097">
        <ele>1055.42</ele>
        <time>2018-02-03T11:28:14Z</time>
      </trkpt>
      <trkpt lat="45.17451" lon="5.64127">
        <ele>1055.76</ele>
        <time>2018-02-03T11:28:17Z</time>
      </trkpt>
    </trkseg>
  </trk>
</gpx>